Scranton, Pennsylvania
Current Conditions -  °F | °C
As of 6:29 AM on Friday 24 Oct 2014 (Local Time) from KAVP Reporting Station
Overcast Overcast  
Wind Chill: 51°   Ceiling: 3400
Heat Index: 51°   Visibility: 10mi
Dew Point: 41°   Wind: 12mph
Humidity: 68%   Direction: 340°NNW
Pressure: 29.9"   Gusts: NA
Location:  41.41°N, 75.66°W
Report Text: KAVP 241029Z AUTO 34010KT 10SM SCT025 OVC034 11/05 A2990 RMK AO2 T01060050
Loading
Personal Weather Stations






























Interactive Weather Map
Tropical Storm Tracking
New forecast layout! Learn more

10-Day Weather Forecast

Advertisements
Track Severe Weather on mobile